sensor_id;sensor_type;location;lat;lon;timestamp;P1;durP1;ratioP1;P2;durP2;ratioP2
77109;SDS011;66062;52.464;16.922;2022-12-29T00:01:29;9.43;;;4.70;;
77109;SDS011;66062;52.464;16.922;2022-12-29T00:03:55;10.27;;;4.85;;
77109;SDS011;66062;52.464;16.922;2022-12-29T00:06:21;9.50;;;4.90;;
77109;SDS011;66062;52.464;16.922;2022-12-29T00:08:46;7.55;;;4.65;;
77109;SDS011;66062;52.464;16.922;2022-12-29T00:11:13;9.65;;;4.65;;
77109;SDS011;66062;52.464;16.922;2022-12-29T00:13:42;11.43;;;4.30;;
77109;SDS011;66062;52.464;16.922;2022-12-29T00:16:27;10.05;;;5.43;;
77109;SDS011;66062;52.464;16.922;2022-12-29T00:18:53;11.57;;;4.75;;
77109;SDS011;66062;52.464;16.922;2022-12-29T00:21:20;12.18;;;5.32;;
77109;SDS011;66062;52.464;16.922;2022-12-29T00:24:05;9.02;;;4.28;;
77109;SDS011;66062;52.464;16.922;2022-12-29T00:29:46;10.32;;;4.50;;
77109;SDS011;66062;52.464;16.922;2022-12-29T00:32:31;9.13;;;4.15;;
77109;SDS011;66062;52.464;16.922;2022-12-29T00:35:23;8.10;;;4.40;;
77109;SDS011;66062;52.464;16.922;2022-12-29T00:37:54;11.07;;;4.65;;
77109;SDS011;66062;52.464;16.922;2022-12-29T00:40:40;7.18;;;3.58;;
77109;SDS011;66062;52.464;16.922;2022-12-29T00:43:24;7.70;;;3.70;;
77109;SDS011;66062;52.464;16.922;2022-12-29T00:46:08;7.95;;;4.03;;
77109;SDS011;66062;52.464;16.922;2022-12-29T00:48:34;7.60;;;3.90;;
77109;SDS011;66062;52.464;16.922;2022-12-29T00:51:18;9.20;;;3.88;;
77109;SDS011;66062;52.464;16.922;2022-12-29T00:53:43;10.18;;;3.80;;
77109;SDS011;66062;52.464;16.922;2022-12-29T00:56:09;8.80;;;4.50;;
77109;SDS011;66062;52.464;16.922;2022-12-29T00:58:34;8.88;;;3.97;;
77109;SDS011;66062;52.464;16.922;2022-12-29T01:01:03;10.35;;;4.28;;
77109;SDS011;66062;52.464;16.922;2022-12-29T01:03:29;8.05;;;4.07;;
77109;SDS011;66062;52.464;16.922;2022-12-29T01:05:55;10.48;;;4.03;;
77109;SDS011;66062;52.464;16.922;2022-12-29T01:08:21;7.88;;;4.20;;
77109;SDS011;66062;52.464;16.922;2022-12-29T01:10:57;8.30;;;4.05;;
77109;SDS011;66062;52.464;16.922;2022-12-29T01:13:30;9.70;;;3.67;;
77109;SDS011;66062;52.464;16.922;2022-12-29T01:15:55;8.52;;;4.18;;
77109;SDS011;66062;52.464;16.922;2022-12-29T01:18:22;7.47;;;3.97;;
77109;SDS011;66062;52.464;16.922;2022-12-29T01:23:14;6.30;;;2.90;;
77109;SDS011;66062;52.464;16.922;2022-12-29T01:25:40;10.48;;;4.22;;
77109;SDS011;66062;52.464;16.922;2022-12-29T01:28:05;8.30;;;3.95;;
77109;SDS011;66062;52.464;16.922;2022-12-29T01:30:33;10.00;;;3.85;;
77109;SDS011;66062;52.464;16.922;2022-12-29T01:33:01;10.18;;;3.58;;
77109;SDS011;66062;52.464;16.922;2022-12-29T01:35:28;8.68;;;4.15;;
77109;SDS011;66062;52.464;16.922;2022-12-29T01:37:53;8.13;;;3.40;;
77109;SDS011;66062;52.464;16.922;2022-12-29T01:40:19;7.28;;;3.78;;
77109;SDS011;66062;52.464;16.922;2022-12-29T01:42:44;5.75;;;3.25;;
77109;SDS011;66062;52.464;16.922;2022-12-29T01:45:11;8.13;;;3.55;;
77109;SDS011;66062;52.464;16.922;2022-12-29T01:50:30;4.97;;;2.92;;
77109;SDS011;66062;52.464;16.922;2022-12-29T01:53:03;8.40;;;3.83;;
77109;SDS011;66062;52.464;16.922;2022-12-29T01:55:56;7.32;;;3.05;;
77109;SDS011;66062;52.464;16.922;2022-12-29T01:58:27;6.07;;;3.58;;
77109;SDS011;66062;52.464;16.922;2022-12-29T02:00:56;6.65;;;3.45;;
77109;SDS011;66062;52.464;16.922;2022-12-29T02:03:22;9.75;;;3.63;;
77109;SDS011;66062;52.464;16.922;2022-12-29T02:05:52;8.20;;;3.70;;
77109;SDS011;66062;52.464;16.922;2022-12-29T02:08:23;6.43;;;3.60;;
77109;SDS011;66062;52.464;16.922;2022-12-29T02:10:52;6.45;;;3.38;;
77109;SDS011;66062;52.464;16.922;2022-12-29T02:13:18;7.88;;;3.38;;
77109;SDS011;66062;52.464;16.922;2022-12-29T02:24:12;7.90;;;3.58;;
77109;SDS011;66062;52.464;16.922;2022-12-29T02:35:07;6.57;;;3.22;;
77109;SDS011;66062;52.464;16.922;2022-12-29T02:40:38;5.82;;;3.15;;
77109;SDS011;66062;52.464;16.922;2022-12-29T02:43:11;7.35;;;3.00;;
77109;SDS011;66062;52.464;16.922;2022-12-29T02:48:30;7.65;;;3.33;;
77109;SDS011;66062;52.464;16.922;2022-12-29T02:51:03;6.03;;;3.33;;
77109;SDS011;66062;52.464;16.922;2022-12-29T02:53:33;6.65;;;3.03;;
77109;SDS011;66062;52.464;16.922;2022-12-29T02:56:18;6.97;;;3.40;;
77109;SDS011;66062;52.464;16.922;2022-12-29T02:58:43;7.35;;;3.38;;
77109;SDS011;66062;52.464;16.922;2022-12-29T03:12:15;7.80;;;3.22;;
77109;SDS011;66062;52.464;16.922;2022-12-29T03:15:03;5.55;;;2.95;;
77109;SDS011;66062;52.464;16.922;2022-12-29T03:18:00;5.68;;;2.30;;
77109;SDS011;66062;52.464;16.922;2022-12-29T03:20:44;4.35;;;2.05;;
77109;SDS011;66062;52.464;16.922;2022-12-29T03:23:17;6.10;;;2.90;;
77109;SDS011;66062;52.464;16.922;2022-12-29T03:25:51;3.60;;;1.60;;
77109;SDS011;66062;52.464;16.922;2022-12-29T03:28:23;6.88;;;2.78;;
77109;SDS011;66062;52.464;16.922;2022-12-29T03:30:53;4.85;;;2.45;;
77109;SDS011;66062;52.464;16.922;2022-12-29T03:33:23;6.32;;;3.03;;
77109;SDS011;66062;52.464;16.922;2022-12-29T03:35:52;5.32;;;2.55;;
77109;SDS011;66062;52.464;16.922;2022-12-29T03:38:25;6.03;;;3.03;;
77109;SDS011;66062;52.464;16.922;2022-12-29T03:40:58;7.18;;;2.70;;
77109;SDS011;66062;52.464;16.922;2022-12-29T03:43:25;4.57;;;2.78;;
77109;SDS011;66062;52.464;16.922;2022-12-29T03:45:52;5.18;;;2.55;;
77109;SDS011;66062;52.464;16.922;2022-12-29T03:48:17;7.72;;;2.92;;
77109;SDS011;66062;52.464;16.922;2022-12-29T03:50:42;4.45;;;2.42;;
77109;SDS011;66062;52.464;16.922;2022-12-29T03:53:08;6.80;;;2.78;;
77109;SDS011;66062;52.464;16.922;2022-12-29T03:55:33;6.97;;;2.50;;
77109;SDS011;66062;52.464;16.922;2022-12-29T03:57:59;4.65;;;2.60;;
77109;SDS011;66062;52.464;16.922;2022-12-29T04:00:24;5.88;;;2.10;;
77109;SDS011;66062;52.464;16.922;2022-12-29T04:02:49;4.72;;;2.45;;
77109;SDS011;66062;52.464;16.922;2022-12-29T04:05:15;4.75;;;2.13;;
77109;SDS011;66062;52.464;16.922;2022-12-29T04:07:40;4.07;;;2.08;;
77109;SDS011;66062;52.464;16.922;2022-12-29T04:10:06;4.57;;;2.80;;
77109;SDS011;66062;52.464;16.922;2022-12-29T04:12:31;5.55;;;2.78;;
77109;SDS011;66062;52.464;16.922;2022-12-29T04:14:57;4.05;;;1.85;;
77109;SDS011;66062;52.464;16.922;2022-12-29T04:17:22;7.65;;;2.45;;
77109;SDS011;66062;52.464;16.922;2022-12-29T04:19:48;7.32;;;2.28;;
77109;SDS011;66062;52.464;16.922;2022-12-29T04:22:13;5.60;;;2.50;;
77109;SDS011;66062;52.464;16.922;2022-12-29T04:24:38;6.32;;;2.70;;
77109;SDS011;66062;52.464;16.922;2022-12-29T04:27:04;4.53;;;2.28;;
77109;SDS011;66062;52.464;16.922;2022-12-29T04:29:29;7.47;;;2.33;;
77109;SDS011;66062;52.464;16.922;2022-12-29T04:31:55;4.13;;;2.05;;
77109;SDS011;66062;52.464;16.922;2022-12-29T04:34:20;5.05;;;3.50;;
77109;SDS011;66062;52.464;16.922;2022-12-29T04:36:45;4.70;;;2.17;;
77109;SDS011;66062;52.464;16.922;2022-12-29T04:39:11;3.65;;;2.20;;
77109;SDS011;66062;52.464;16.922;2022-12-29T04:41:36;5.72;;;2.47;;
77109;SDS011;66062;52.464;16.922;2022-12-29T04:44:01;4.30;;;2.33;;
77109;SDS011;66062;52.464;16.922;2022-12-29T04:46:27;4.25;;;1.55;;
77109;SDS011;66062;52.464;16.922;2022-12-29T04:48:52;4.30;;;2.08;;
77109;SDS011;66062;52.464;16.922;2022-12-29T04:51:18;6.32;;;2.38;;
77109;SDS011;66062;52.464;16.922;2022-12-29T04:53:43;4.38;;;1.70;;
77109;SDS011;66062;52.464;16.922;2022-12-29T04:56:08;4.03;;;2.08;;
77109;SDS011;66062;52.464;16.922;2022-12-29T04:58:34;4.00;;;2.05;;
77109;SDS011;66062;52.464;16.922;2022-12-29T05:01:00;4.35;;;2.05;;
77109;SDS011;66062;52.464;16.922;2022-12-29T05:03:26;4.03;;;1.95;;
77109;SDS011;66062;52.464;16.922;2022-12-29T05:05:55;4.30;;;1.73;;
77109;SDS011;66062;52.464;16.922;2022-12-29T05:08:21;2.85;;;1.85;;
77109;SDS011;66062;52.464;16.922;2022-12-29T05:10:49;6.85;;;2.30;;
77109;SDS011;66062;52.464;16.922;2022-12-29T05:13:15;4.72;;;2.47;;
77109;SDS011;66062;52.464;16.922;2022-12-29T05:15:45;6.53;;;2.20;;
77109;SDS011;66062;52.464;16.922;2022-12-29T05:18:12;7.43;;;1.65;;
77109;SDS011;66062;52.464;16.922;2022-12-29T05:20:38;4.93;;;2.28;;
77109;SDS011;66062;52.464;16.922;2022-12-29T05:23:03;6.53;;;2.30;;
77109;SDS011;66062;52.464;16.922;2022-12-29T05:25:28;3.60;;;1.83;;
77109;SDS011;66062;52.464;16.922;2022-12-29T05:27:54;6.10;;;2.20;;
77109;SDS011;66062;52.464;16.922;2022-12-29T05:30:19;4.80;;;1.90;;
77109;SDS011;66062;52.464;16.922;2022-12-29T05:32:45;4.35;;;2.05;;
77109;SDS011;66062;52.464;16.922;2022-12-29T05:35:10;4.03;;;1.65;;
77109;SDS011;66062;52.464;16.922;2022-12-29T05:37:35;3.80;;;2.15;;
77109;SDS011;66062;52.464;16.922;2022-12-29T05:40:01;5.13;;;1.73;;
77109;SDS011;66062;52.464;16.922;2022-12-29T05:42:26;5.53;;;1.75;;
77109;SDS011;66062;52.464;16.922;2022-12-29T05:44:51;3.58;;;1.73;;
77109;SDS011;66062;52.464;16.922;2022-12-29T05:47:18;4.53;;;2.33;;
77109;SDS011;66062;52.464;16.922;2022-12-29T05:49:44;4.70;;;1.95;;
77109;SDS011;66062;52.464;16.922;2022-12-29T05:52:09;4.07;;;1.77;;
77109;SDS011;66062;52.464;16.922;2022-12-29T05:54:35;2.72;;;1.63;;
77109;SDS011;66062;52.464;16.922;2022-12-29T05:57:00;4.78;;;1.98;;
77109;SDS011;66062;52.464;16.922;2022-12-29T05:59:26;5.13;;;2.03;;
77109;SDS011;66062;52.464;16.922;2022-12-29T06:01:51;3.55;;;1.83;;
77109;SDS011;66062;52.464;16.922;2022-12-29T06:04:16;5.25;;;1.70;;
77109;SDS011;66062;52.464;16.922;2022-12-29T06:06:42;5.40;;;1.88;;
77109;SDS011;66062;52.464;16.922;2022-12-29T06:09:09;6.65;;;2.22;;
77109;SDS011;66062;52.464;16.922;2022-12-29T06:11:35;6.15;;;1.58;;
77109;SDS011;66062;52.464;16.922;2022-12-29T06:14:00;4.43;;;2.38;;
77109;SDS011;66062;52.464;16.922;2022-12-29T06:16:26;5.68;;;2.00;;
77109;SDS011;66062;52.464;16.922;2022-12-29T06:18:51;4.07;;;1.98;;
77109;SDS011;66062;52.464;16.922;2022-12-29T06:21:16;5.18;;;2.25;;
77109;SDS011;66062;52.464;16.922;2022-12-29T06:23:42;4.20;;;1.55;;
77109;SDS011;66062;52.464;16.922;2022-12-29T06:26:07;5.03;;;2.35;;
77109;SDS011;66062;52.464;16.922;2022-12-29T06:28:33;3.03;;;1.58;;
77109;SDS011;66062;52.464;16.922;2022-12-29T06:30:58;4.30;;;1.88;;
77109;SDS011;66062;52.464;16.922;2022-12-29T06:33:24;4.80;;;2.22;;
77109;SDS011;66062;52.464;16.922;2022-12-29T06:35:49;3.78;;;2.00;;
77109;SDS011;66062;52.464;16.922;2022-12-29T06:38:14;6.13;;;2.00;;
77109;SDS011;66062;52.464;16.922;2022-12-29T06:40:41;6.47;;;2.25;;
77109;SDS011;66062;52.464;16.922;2022-12-29T06:43:09;6.10;;;2.47;;
77109;SDS011;66062;52.464;16.922;2022-12-29T06:45:37;4.18;;;1.73;;
77109;SDS011;66062;52.464;16.922;2022-12-29T06:48:03;3.47;;;1.65;;
77109;SDS011;66062;52.464;16.922;2022-12-29T06:50:29;6.45;;;2.72;;
77109;SDS011;66062;52.464;16.922;2022-12-29T06:52:54;5.25;;;2.08;;
77109;SDS011;66062;52.464;16.922;2022-12-29T06:55:20;6.30;;;2.97;;
77109;SDS011;66062;52.464;16.922;2022-12-29T06:57:46;4.43;;;2.05;;
77109;SDS011;66062;52.464;16.922;2022-12-29T07:00:11;5.85;;;2.20;;
77109;SDS011;66062;52.464;16.922;2022-12-29T07:02:37;4.35;;;2.10;;
77109;SDS011;66062;52.464;16.922;2022-12-29T07:05:02;5.35;;;1.92;;
77109;SDS011;66062;52.464;16.922;2022-12-29T07:07:28;2.85;;;1.65;;
77109;SDS011;66062;52.464;16.922;2022-12-29T07:09:53;4.43;;;2.33;;
77109;SDS011;66062;52.464;16.922;2022-12-29T07:12:19;4.18;;;1.90;;
77109;SDS011;66062;52.464;16.922;2022-12-29T07:14:45;4.00;;;2.33;;
77109;SDS011;66062;52.464;16.922;2022-12-29T07:17:10;7.03;;;2.10;;
77109;SDS011;66062;52.464;16.922;2022-12-29T07:19:35;4.38;;;2.40;;
77109;SDS011;66062;52.464;16.922;2022-12-29T07:22:01;4.25;;;2.13;;
77109;SDS011;66062;52.464;16.922;2022-12-29T07:24:26;6.00;;;2.58;;
77109;SDS011;66062;52.464;16.922;2022-12-29T07:26:52;5.90;;;2.78;;
77109;SDS011;66062;52.464;16.922;2022-12-29T07:29:17;3.38;;;1.63;;
77109;SDS011;66062;52.464;16.922;2022-12-29T07:31:43;6.20;;;2.70;;
77109;SDS011;66062;52.464;16.922;2022-12-29T07:34:08;4.35;;;1.92;;
77109;SDS011;66062;52.464;16.922;2022-12-29T07:36:34;7.43;;;2.63;;
77109;SDS011;66062;52.464;16.922;2022-12-29T07:39:00;8.63;;;1.90;;
77109;SDS011;66062;52.464;16.922;2022-12-29T07:41:26;5.05;;;2.25;;
77109;SDS011;66062;52.464;16.922;2022-12-29T07:43:51;4.75;;;2.65;;
77109;SDS011;66062;52.464;16.922;2022-12-29T07:46:17;4.22;;;2.05;;
77109;SDS011;66062;52.464;16.922;2022-12-29T07:48:42;5.68;;;2.78;;
77109;SDS011;66062;52.464;16.922;2022-12-29T07:51:08;5.57;;;2.25;;
77109;SDS011;66062;52.464;16.922;2022-12-29T07:53:33;4.35;;;2.30;;
77109;SDS011;66062;52.464;16.922;2022-12-29T07:55:58;5.55;;;2.30;;
77109;SDS011;66062;52.464;16.922;2022-12-29T07:58:25;4.18;;;2.08;;
77109;SDS011;66062;52.464;16.922;2022-12-29T08:00:54;7.18;;;2.38;;
77109;SDS011;66062;52.464;16.922;2022-12-29T08:03:20;3.97;;;2.25;;
77109;SDS011;66062;52.464;16.922;2022-12-29T08:05:45;5.25;;;2.03;;
77109;SDS011;66062;52.464;16.922;2022-12-29T08:08:11;4.43;;;2.03;;
77109;SDS011;66062;52.464;16.922;2022-12-29T08:10:36;5.30;;;1.88;;
77109;SDS011;66062;52.464;16.922;2022-12-29T08:13:02;5.57;;;2.50;;
77109;SDS011;66062;52.464;16.922;2022-12-29T08:15:27;4.60;;;2.17;;
77109;SDS011;66062;52.464;16.922;2022-12-29T08:17:53;7.03;;;2.35;;
77109;SDS011;66062;52.464;16.922;2022-12-29T08:20:18;4.40;;;2.08;;
77109;SDS011;66062;52.464;16.922;2022-12-29T08:22:43;3.90;;;2.17;;
77109;SDS011;66062;52.464;16.922;2022-12-29T08:25:09;7.13;;;2.28;;
77109;SDS011;66062;52.464;16.922;2022-12-29T08:27:34;5.55;;;2.05;;
77109;SDS011;66062;52.464;16.922;2022-12-29T08:30:00;5.97;;;2.72;;
77109;SDS011;66062;52.464;16.922;2022-12-29T08:32:25;7.63;;;2.80;;
77109;SDS011;66062;52.464;16.922;2022-12-29T08:34:53;5.18;;;2.60;;
77109;SDS011;66062;52.464;16.922;2022-12-29T08:37:18;5.80;;;2.47;;
77109;SDS011;66062;52.464;16.922;2022-12-29T08:39:44;4.57;;;2.10;;
77109;SDS011;66062;52.464;16.922;2022-12-29T08:42:09;5.72;;;2.88;;
77109;SDS011;66062;52.464;16.922;2022-12-29T08:44:34;5.15;;;2.35;;
77109;SDS011;66062;52.464;16.922;2022-12-29T08:47:00;4.95;;;2.10;;
77109;SDS011;66062;52.464;16.922;2022-12-29T08:49:25;6.85;;;2.53;;
77109;SDS011;66062;52.464;16.922;2022-12-29T08:51:50;6.65;;;2.40;;
77109;SDS011;66062;52.464;16.922;2022-12-29T08:54:16;5.13;;;2.47;;
77109;SDS011;66062;52.464;16.922;2022-12-29T08:56:41;6.07;;;2.22;;
77109;SDS011;66062;52.464;16.922;2022-12-29T08:59:07;5.88;;;2.10;;
77109;SDS011;66062;52.464;16.922;2022-12-29T09:01:32;6.60;;;2.38;;
77109;SDS011;66062;52.464;16.922;2022-12-29T09:04:00;6.55;;;2.88;;
77109;SDS011;66062;52.464;16.922;2022-12-29T09:06:25;5.97;;;2.17;;
77109;SDS011;66062;52.464;16.922;2022-12-29T09:08:51;4.90;;;2.28;;
77109;SDS011;66062;52.464;16.922;2022-12-29T09:11:20;6.30;;;2.20;;
77109;SDS011;66062;52.464;16.922;2022-12-29T09:13:47;4.80;;;2.50;;
77109;SDS011;66062;52.464;16.922;2022-12-29T09:16:13;7.63;;;2.65;;
77109;SDS011;66062;52.464;16.922;2022-12-29T09:18:39;4.72;;;2.30;;
77109;SDS011;66062;52.464;16.922;2022-12-29T09:21:05;10.52;;;6.43;;
77109;SDS011;66062;52.464;16.922;2022-12-29T09:23:32;5.68;;;2.58;;
77109;SDS011;66062;52.464;16.922;2022-12-29T09:25:58;6.15;;;2.47;;
77109;SDS011;66062;52.464;16.922;2022-12-29T09:28:23;7.55;;;3.05;;
77109;SDS011;66062;52.464;16.922;2022-12-29T09:30:49;6.97;;;2.80;;
77109;SDS011;66062;52.464;16.922;2022-12-29T09:33:16;5.35;;;2.78;;
77109;SDS011;66062;52.464;16.922;2022-12-29T09:35:45;6.50;;;3.22;;
77109;SDS011;66062;52.464;16.922;2022-12-29T09:40:43;5.72;;;2.22;;
77109;SDS011;66062;52.464;16.922;2022-12-29T09:49:01;6.13;;;2.50;;
77109;SDS011;66062;52.464;16.922;2022-12-29T09:51:41;8.93;;;3.75;;
77109;SDS011;66062;52.464;16.922;2022-12-29T09:54:32;6.00;;;2.15;;
77109;SDS011;66062;52.464;16.922;2022-12-29T10:00:20;6.57;;;2.00;;
77109;SDS011;66062;52.464;16.922;2022-12-29T10:02:58;5.32;;;2.35;;
77109;SDS011;66062;52.464;16.922;2022-12-29T10:08:16;6.95;;;2.75;;
77109;SDS011;66062;52.464;16.922;2022-12-29T10:10:56;6.45;;;2.67;;
77109;SDS011;66062;52.464;16.922;2022-12-29T10:16:29;4.75;;;2.13;;
77109;SDS011;66062;52.464;16.922;2022-12-29T10:24:40;4.22;;;2.03;;
77109;SDS011;66062;52.464;16.922;2022-12-29T10:27:10;6.65;;;3.05;;
77109;SDS011;66062;52.464;16.922;2022-12-29T10:29:43;7.90;;;3.83;;
77109;SDS011;66062;52.464;16.922;2022-12-29T10:32:17;4.47;;;2.03;;
77109;SDS011;66062;52.464;16.922;2022-12-29T10:35:39;5.40;;;2.35;;
77109;SDS011;66062;52.464;16.922;2022-12-29T10:40:43;7.40;;;3.00;;
77109;SDS011;66062;52.464;16.922;2022-12-29T10:43:25;6.78;;;3.13;;
77109;SDS011;66062;52.464;16.922;2022-12-29T10:45:54;7.25;;;3.25;;
77109;SDS011;66062;52.464;16.922;2022-12-29T10:48:34;5.93;;;2.22;;
77109;SDS011;66062;52.464;16.922;2022-12-29T10:51:01;4.50;;;1.70;;
77109;SDS011;66062;52.464;16.922;2022-12-29T10:53:40;5.57;;;2.05;;
77109;SDS011;66062;52.464;16.922;2022-12-29T10:59:23;4.53;;;1.90;;
77109;SDS011;66062;52.464;16.922;2022-12-29T11:02:04;4.65;;;2.00;;
77109;SDS011;66062;52.464;16.922;2022-12-29T11:05:05;6.53;;;2.03;;
77109;SDS011;66062;52.464;16.922;2022-12-29T11:07:53;6.28;;;1.80;;
77109;SDS011;66062;52.464;16.922;2022-12-29T11:10:30;5.22;;;2.40;;
77109;SDS011;66062;52.464;16.922;2022-12-29T11:13:24;3.28;;;1.48;;
77109;SDS011;66062;52.464;16.922;2022-12-29T11:15:51;4.75;;;2.35;;
77109;SDS011;66062;52.464;16.922;2022-12-29T11:20:51;6.80;;;2.05;;
77109;SDS011;66062;52.464;16.922;2022-12-29T11:26:07;10.93;;;5.50;;
77109;SDS011;66062;52.464;16.922;2022-12-29T11:29:04;6.38;;;2.55;;
77109;SDS011;66062;52.464;16.922;2022-12-29T11:31:40;6.90;;;2.30;;
77109;SDS011;66062;52.464;16.922;2022-12-29T11:34:07;6.05;;;2.72;;
77109;SDS011;66062;52.464;16.922;2022-12-29T11:36:33;5.63;;;2.67;;
77109;SDS011;66062;52.464;16.922;2022-12-29T11:39:00;5.00;;;1.95;;
77109;SDS011;66062;52.464;16.922;2022-12-29T11:41:28;3.95;;;1.90;;
77109;SDS011;66062;52.464;16.922;2022-12-29T11:43:56;3.90;;;1.98;;
77109;SDS011;66062;52.464;16.922;2022-12-29T11:46:28;3.97;;;1.90;;
77109;SDS011;66062;52.464;16.922;2022-12-29T11:48:57;6.65;;;2.13;;
77109;SDS011;66062;52.464;16.922;2022-12-29T11:51:27;5.18;;;2.22;;
77109;SDS011;66062;52.464;16.922;2022-12-29T11:53:56;5.90;;;2.83;;
77109;SDS011;66062;52.464;16.922;2022-12-29T11:56:34;5.93;;;2.33;;
77109;SDS011;66062;52.464;16.922;2022-12-29T11:59:23;6.22;;;2.83;;
77109;SDS011;66062;52.464;16.922;2022-12-29T12:01:52;4.80;;;2.35;;
77109;SDS011;66062;52.464;16.922;2022-12-29T12:04:21;7.18;;;2.60;;
77109;SDS011;66062;52.464;16.922;2022-12-29T12:09:45;5.95;;;2.20;;
77109;SDS011;66062;52.464;16.922;2022-12-29T12:12:37;8.88;;;2.10;;
77109;SDS011;66062;52.464;16.922;2022-12-29T12:15:08;5.85;;;2.42;;
77109;SDS011;66062;52.464;16.922;2022-12-29T12:23:19;5.40;;;2.25;;
77109;SDS011;66062;52.464;16.922;2022-12-29T12:26:05;9.18;;;2.92;;
77109;SDS011;66062;52.464;16.922;2022-12-29T12:28:42;4.20;;;1.83;;
77109;SDS011;66062;52.464;16.922;2022-12-29T12:31:34;8.98;;;3.83;;
77109;SDS011;66062;52.464;16.922;2022-12-29T12:34:11;5.50;;;1.88;;
77109;SDS011;66062;52.464;16.922;2022-12-29T12:36:52;5.07;;;1.52;;
77109;SDS011;66062;52.464;16.922;2022-12-29T12:40:01;5.00;;;1.27;;
77109;SDS011;66062;52.464;16.922;2022-12-29T12:56:43;3.40;;;1.50;;
77109;SDS011;66062;52.464;16.922;2022-12-29T13:02:08;5.72;;;2.22;;
77109;SDS011;66062;52.464;16.922;2022-12-29T13:16:07;4.22;;;2.10;;
77109;SDS011;66062;52.464;16.922;2022-12-29T13:24:28;3.85;;;1.40;;
77109;SDS011;66062;52.464;16.922;2022-12-29T13:37:33;3.80;;;1.42;;
77109;SDS011;66062;52.464;16.922;2022-12-29T13:40:13;4.78;;;1.60;;
77109;SDS011;66062;52.464;16.922;2022-12-29T13:42:42;3.22;;;1.30;;
77109;SDS011;66062;52.464;16.922;2022-12-29T13:45:16;3.83;;;1.33;;
77109;SDS011;66062;52.464;16.922;2022-12-29T13:47:59;2.92;;;1.60;;
77109;SDS011;66062;52.464;16.922;2022-12-29T13:50:27;4.88;;;1.58;;
77109;SDS011;66062;52.464;16.922;2022-12-29T13:53:57;3.40;;;1.75;;
77109;SDS011;66062;52.464;16.922;2022-12-29T13:55:58;8.65;;;2.00;;
77109;SDS011;66062;52.464;16.922;2022-12-29T14:01:34;5.07;;;1.80;;
77109;SDS011;66062;52.464;16.922;2022-12-29T14:04:24;4.03;;;1.50;;
77109;SDS011;66062;52.464;16.922;2022-12-29T14:07:04;4.38;;;1.58;;
77109;SDS011;66062;52.464;16.922;2022-12-29T14:09:40;3.40;;;1.63;;
77109;SDS011;66062;52.464;16.922;2022-12-29T14:12:21;5.63;;;1.60;;
77109;SDS011;66062;52.464;16.922;2022-12-29T14:15:13;6.57;;;1.80;;
77109;SDS011;66062;52.464;16.922;2022-12-29T14:17:44;5.25;;;2.08;;
77109;SDS011;66062;52.464;16.922;2022-12-29T14:20:30;5.65;;;2.20;;
77109;SDS011;66062;52.464;16.922;2022-12-29T14:23:01;4.68;;;1.83;;
77109;SDS011;66062;52.464;16.922;2022-12-29T14:28:35;7.05;;;2.05;;
77109;SDS011;66062;52.464;16.922;2022-12-29T14:33:40;5.30;;;2.28;;
77109;SDS011;66062;52.464;16.922;2022-12-29T14:36:25;5.38;;;1.90;;
77109;SDS011;66062;52.464;16.922;2022-12-29T14:38:58;8.50;;;2.47;;
77109;SDS011;66062;52.464;16.922;2022-12-29T14:41:35;6.03;;;2.65;;
77109;SDS011;66062;52.464;16.922;2022-12-29T14:46:45;5.10;;;2.65;;
77109;SDS011;66062;52.464;16.922;2022-12-29T14:49:15;5.68;;;2.10;;
77109;SDS011;66062;52.464;16.922;2022-12-29T14:51:43;9.90;;;2.75;;
77109;SDS011;66062;52.464;16.922;2022-12-29T14:56:56;5.97;;;2.13;;
77109;SDS011;66062;52.464;16.922;2022-12-29T14:59:25;6.68;;;2.47;;
77109;SDS011;66062;52.464;16.922;2022-12-29T15:01:52;5.70;;;2.72;;
77109;SDS011;66062;52.464;16.922;2022-12-29T15:06:50;8.32;;;2.47;;
77109;SDS011;66062;52.464;16.922;2022-12-29T15:14:52;7.03;;;2.80;;
77109;SDS011;66062;52.464;16.922;2022-12-29T15:17:23;6.40;;;2.35;;
77109;SDS011;66062;52.464;16.922;2022-12-29T15:19:55;6.68;;;2.70;;
77109;SDS011;66062;52.464;16.922;2022-12-29T15:22:22;8.75;;;3.08;;
77109;SDS011;66062;52.464;16.922;2022-12-29T15:24:49;6.72;;;3.30;;
77109;SDS011;66062;52.464;16.922;2022-12-29T15:27:18;5.68;;;2.60;;
77109;SDS011;66062;52.464;16.922;2022-12-29T15:29:46;6.10;;;2.80;;
77109;SDS011;66062;52.464;16.922;2022-12-29T15:34:40;6.38;;;2.78;;
77109;SDS011;66062;52.464;16.922;2022-12-29T15:37:05;8.48;;;3.38;;
77109;SDS011;66062;52.464;16.922;2022-12-29T15:42:02;7.40;;;3.08;;
77109;SDS011;66062;52.464;16.922;2022-12-29T15:47:17;7.20;;;2.80;;
77109;SDS011;66062;52.464;16.922;2022-12-29T15:49:47;6.22;;;2.55;;
77109;SDS011;66062;52.464;16.922;2022-12-29T15:52:17;7.78;;;2.83;;
77109;SDS011;66062;52.464;16.922;2022-12-29T15:54:44;8.10;;;3.65;;
77109;SDS011;66062;52.464;16.922;2022-12-29T15:57:24;6.13;;;3.33;;
77109;SDS011;66062;52.464;16.922;2022-12-29T15:59:51;9.35;;;3.17;;
77109;SDS011;66062;52.464;16.922;2022-12-29T16:02:18;7.97;;;3.28;;
77109;SDS011;66062;52.464;16.922;2022-12-29T16:04:46;7.63;;;2.97;;
77109;SDS011;66062;52.464;16.922;2022-12-29T16:09:57;6.97;;;3.08;;
77109;SDS011;66062;52.464;16.922;2022-12-29T16:12:30;9.38;;;3.80;;
77109;SDS011;66062;52.464;16.922;2022-12-29T16:14:59;8.57;;;3.80;;
77109;SDS011;66062;52.464;16.922;2022-12-29T16:17:27;9.85;;;3.78;;
77109;SDS011;66062;52.464;16.922;2022-12-29T16:20:04;10.25;;;4.38;;
77109;SDS011;66062;52.464;16.922;2022-12-29T16:22:45;9.27;;;4.25;;
77109;SDS011;66062;52.464;16.922;2022-12-29T16:27:59;9.63;;;4.18;;
77109;SDS011;66062;52.464;16.922;2022-12-29T16:30:31;14.77;;;4.43;;
77109;SDS011;66062;52.464;16.922;2022-12-29T16:32:59;11.07;;;4.63;;
77109;SDS011;66062;52.464;16.922;2022-12-29T16:35:44;9.43;;;4.13;;
77109;SDS011;66062;52.464;16.922;2022-12-29T16:40:50;8.52;;;3.63;;
77109;SDS011;66062;52.464;16.922;2022-12-29T16:43:35;8.88;;;4.15;;
77109;SDS011;66062;52.464;16.922;2022-12-29T16:48:46;9.15;;;4.07;;
77109;SDS011;66062;52.464;16.922;2022-12-29T16:51:23;11.55;;;4.18;;
77109;SDS011;66062;52.464;16.922;2022-12-29T16:53:56;6.50;;;3.35;;
77109;SDS011;66062;52.464;16.922;2022-12-29T16:56:24;9.73;;;3.63;;
77109;SDS011;66062;52.464;16.922;2022-12-29T16:59:01;9.02;;;3.83;;
77109;SDS011;66062;52.464;16.922;2022-12-29T17:01:41;6.88;;;3.25;;
77109;SDS011;66062;52.464;16.922;2022-12-29T17:04:10;7.43;;;3.60;;
77109;SDS011;66062;52.464;16.922;2022-12-29T17:06:38;9.93;;;3.80;;
77109;SDS011;66062;52.464;16.922;2022-12-29T17:09:16;13.10;;;5.60;;
77109;SDS011;66062;52.464;16.922;2022-12-29T17:12:00;9.60;;;3.88;;
77109;SDS011;66062;52.464;16.922;2022-12-29T17:14:46;8.18;;;3.53;;
77109;SDS011;66062;52.464;16.922;2022-12-29T17:19:52;6.28;;;2.97;;
77109;SDS011;66062;52.464;16.922;2022-12-29T17:22:27;9.43;;;3.53;;
77109;SDS011;66062;52.464;16.922;2022-12-29T17:24:53;10.48;;;3.97;;
77109;SDS011;66062;52.464;16.922;2022-12-29T17:29:58;8.20;;;3.60;;
77109;SDS011;66062;52.464;16.922;2022-12-29T17:32:45;9.27;;;4.07;;
77109;SDS011;66062;52.464;16.922;2022-12-29T17:37:43;12.57;;;4.53;;
77109;SDS011;66062;52.464;16.922;2022-12-29T17:40:16;12.20;;;5.80;;
77109;SDS011;66062;52.464;16.922;2022-12-29T17:42:43;9.70;;;4.15;;
77109;SDS011;66062;52.464;16.922;2022-12-29T17:45:12;13.90;;;5.72;;
77109;SDS011;66062;52.464;16.922;2022-12-29T17:47:42;10.95;;;4.97;;
77109;SDS011;66062;52.464;16.922;2022-12-29T17:50:11;8.98;;;4.38;;